Time;durP1;ratioP1;P1;durP2;ratioP2;P2;SDS_P1;SDS_P2;PMS_P1;PMS_P2;Temp;Humidity;BMP_temperature;BMP_pressure;BME280_temperature;BME280_humidity;BME280_pressure;Samples;Min_cycle;Max_cycle;Signal;HPM_P1;HPM_P2
2021/03/09 00:00:48;;;;;;;63.07;36.23;;;7.50;73.90;;;;;;5061443;28;20038;-74
2021/03/09 00:03:14;;;;;;;64.77;37.77;;;7.40;73.90;;;;;;5078524;28;20031;-74
2021/03/09 00:05:39;;;;;;;65.10;38.40;;;7.50;74.10;;;;;;5110262;28;20032;-74
2021/03/09 00:08:05;;;;;;;64.90;38.13;;;7.40;74.40;;;;;;5112120;28;20039;-74
2021/03/09 00:10:31;;;;;;;60.93;35.37;;;7.50;74.60;;;;;;5111891;28;20487;-74
2021/03/09 00:12:56;;;;;;;65.67;37.77;;;7.40;74.50;;;;;;5101269;28;20043;-73
2021/03/09 00:15:22;;;;;;;67.57;38.03;;;7.50;74.60;;;;;;5093387;28;20028;-75
2021/03/09 00:17:47;;;;;;;69.57;40.43;;;7.50;74.80;;;;;;5093151;28;20060;-74
2021/03/09 00:20:13;;;;;;;66.00;37.73;;;7.50;74.90;;;;;;5094181;28;20035;-75
2021/03/09 00:22:39;;;;;;;72.47;41.90;;;7.50;74.80;;;;;;5093374;28;20036;-76
2021/03/09 00:25:06;;;;;;;69.43;39.53;;;7.50;75.10;;;;;;5092093;28;20070;-74
2021/03/09 00:27:31;;;;;;;66.00;37.07;;;7.50;75.10;;;;;;5055224;28;20032;-74
2021/03/09 00:29:57;;;;;;;58.50;35.80;;;7.50;74.90;;;;;;5054281;28;20031;-75
2021/03/09 00:32:22;;;;;;;67.33;37.57;;;7.40;74.80;;;;;;5087329;28;20034;-74
2021/03/09 00:34:48;;;;;;;62.90;37.93;;;7.40;74.80;;;;;;5093955;28;20391;-75
2021/03/09 00:37:14;;;;;;;64.50;37.00;;;7.30;75.00;;;;;;5112122;28;20122;-74
2021/03/09 00:39:39;;;;;;;63.13;37.63;;;7.40;75.30;;;;;;5113415;28;20028;-77
2021/03/09 00:42:05;;;;;;;64.50;38.27;;;7.30;75.20;;;;;;5077357;28;20177;-76
2021/03/09 00:44:31;;;;;;;68.10;37.53;;;7.40;75.30;;;;;;5112175;28;20028;-74
2021/03/09 00:46:56;;;;;;;64.53;37.27;;;7.40;75.60;;;;;;5109954;28;20364;-74
2021/03/09 00:49:22;;;;;;;65.33;37.37;;;7.40;75.70;;;;;;5112499;28;20031;-74
2021/03/09 00:51:48;;;;;;;62.70;36.53;;;7.40;75.70;;;;;;5110252;28;20086;-74
2021/03/09 00:54:13;;;;;;;63.37;37.30;;;7.40;75.70;;;;;;5109833;28;20039;-74
2021/03/09 00:56:39;;;;;;;63.67;37.50;;;7.30;75.70;;;;;;5093787;28;20039;-78
2021/03/09 00:59:05;;;;;;;62.73;36.33;;;7.30;75.80;;;;;;5093717;28;20028;-74
2021/03/09 01:01:30;;;;;;;63.23;35.20;;;7.30;76.00;;;;;;5058167;28;20396;-74
2021/03/09 01:03:56;;;;;;;64.90;36.00;;;7.30;76.20;;;;;;5091171;28;20081;-74
2021/03/09 01:06:21;;;;;;;61.80;35.23;;;7.20;76.10;;;;;;5076992;28;20032;-75
2021/03/09 01:08:47;;;;;;;63.37;36.37;;;7.20;76.20;;;;;;5089968;28;20471;-75
2021/03/09 01:11:13;;;;;;;60.20;35.73;;;7.20;76.10;;;;;;5073610;28;20024;-74
2021/03/09 01:13:38;;;;;;;60.83;35.13;;;7.10;76.20;;;;;;5056753;28;20032;-74
2021/03/09 01:16:04;;;;;;;62.53;35.73;;;7.10;76.40;;;;;;5092218;28;20081;-74
2021/03/09 01:18:30;;;;;;;62.90;34.80;;;7.10;76.20;;;;;;5093177;28;20062;-75
2021/03/09 01:20:56;;;;;;;58.57;34.30;;;7.00;75.90;;;;;;5109930;28;20463;-75
2021/03/09 01:23:21;;;;;;;59.03;34.50;;;6.90;76.20;;;;;;5111146;28;20505;-75
2021/03/09 01:25:47;;;;;;;59.00;33.67;;;6.90;76.50;;;;;;5110069;28;20429;-77
2021/03/09 01:28:12;;;;;;;61.00;33.87;;;6.90;76.50;;;;;;5094060;28;20468;-76
2021/03/09 01:30:38;;;;;;;56.07;32.67;;;6.90;76.80;;;;;;5076961;28;20393;-77
2021/03/09 01:33:04;;;;;;;63.13;34.43;;;6.90;76.90;;;;;;5106714;28;20061;-76
2021/03/09 01:35:30;;;;;;;61.07;36.30;;;6.80;77.00;;;;;;5109351;28;20073;-77
2021/03/09 01:37:56;;;;;;;63.40;35.47;;;6.80;77.30;;;;;;5109496;28;20040;-77
2021/03/09 01:40:24;;;;;;;58.17;34.60;;;6.70;77.10;;;;;;5110305;28;20611;-78
2021/03/09 01:42:50;;;;;;;62.83;35.00;;;6.60;77.30;;;;;;5109724;28;20156;-77
2021/03/09 01:45:16;;;;;;;57.87;34.10;;;6.50;77.50;;;;;;5093550;28;20512;-77
2021/03/09 01:47:44;;;;;;;60.47;33.93;;;6.50;77.60;;;;;;5112800;28;20584;-77
2021/03/09 01:50:12;;;;;;;62.43;34.57;;;6.40;77.90;;;;;;5110922;28;20082;-76
2021/03/09 01:52:39;;;;;;;68.73;36.83;;;6.40;78.00;;;;;;5110468;28;20387;-76
2021/03/09 01:55:10;;;;;;;61.27;36.27;;;6.30;78.20;;;;;;5091719;28;20031;-76
2021/03/09 01:57:37;;;;;;;64.23;35.33;;;6.30;78.30;;;;;;5109310;28;20490;-77
2021/03/09 02:00:07;;;;;;;63.77;35.37;;;6.20;78.40;;;;;;5109581;28;20027;-77
2021/03/09 02:02:33;;;;;;;59.63;33.90;;;6.30;78.90;;;;;;5110047;28;20055;-76
2021/03/09 02:05:00;;;;;;;59.43;33.97;;;6.30;78.90;;;;;;5109788;28;20071;-77
2021/03/09 02:07:25;;;;;;;59.13;33.80;;;6.30;79.00;;;;;;5110050;28;20035;-76
2021/03/09 02:09:51;;;;;;;60.50;34.37;;;6.30;79.10;;;;;;5111126;28;20028;-79
2021/03/09 02:12:38;;;;;;;66.40;35.73;;;6.40;79.20;;;;;;5109359;28;20115;-76
2021/03/09 02:15:19;;;;;;;60.63;33.57;;;6.30;79.40;;;;;;5108512;28;20020;-77
2021/03/09 02:17:57;;;;;;;64.57;36.13;;;6.40;79.70;;;;;;5070900;28;20060;-75
2021/03/09 02:20:53;;;;;;;63.87;33.63;;;6.50;79.80;;;;;;5082564;28;20024;-76
2021/03/09 02:23:34;;;;;;;58.63;34.07;;;6.40;79.60;;;;;;5089487;28;20024;-75
2021/03/09 02:26:32;;;;;;;62.70;35.03;;;6.40;79.80;;;;;;5089027;28;20024;-76
2021/03/09 02:29:19;;;;;;;60.83;34.30;;;6.30;79.90;;;;;;5090735;28;20446;-76
2021/03/09 02:31:50;;;;;;;60.33;33.20;;;6.40;80.00;;;;;;5072671;28;20052;-77
2021/03/09 02:34:21;;;;;;;61.17;33.17;;;6.40;80.00;;;;;;5095091;28;20024;-76
2021/03/09 02:36:48;;;;;;;58.70;34.20;;;6.40;80.30;;;;;;5092638;28;20031;-76
2021/03/09 02:39:15;;;;;;;59.10;33.47;;;6.40;80.20;;;;;;5092743;28;20024;-76
2021/03/09 02:41:44;;;;;;;64.03;34.03;;;6.40;80.40;;;;;;5092840;28;20020;-76
2021/03/09 02:44:25;;;;;;;63.27;34.70;;;6.40;80.30;;;;;;5092038;28;20024;-76
2021/03/09 02:46:50;;;;;;;60.90;33.43;;;6.30;80.40;;;;;;5102668;28;20106;-75
2021/03/09 02:49:18;;;;;;;61.40;33.20;;;6.30;80.60;;;;;;5114153;28;20091;-75
2021/03/09 02:51:45;;;;;;;60.23;33.27;;;6.30;80.70;;;;;;5113220;28;20135;-76
2021/03/09 02:54:15;;;;;;;60.90;33.00;;;6.20;80.70;;;;;;5096219;28;20024;-76
2021/03/09 02:56:43;;;;;;;59.70;33.00;;;6.20;80.70;;;;;;5116144;28;20036;-76
2021/03/09 02:59:12;;;;;;;60.37;34.17;;;6.20;81.00;;;;;;5113655;28;20051;-77
2021/03/09 03:01:38;;;;;;;59.30;33.80;;;6.20;80.90;;;;;;5114424;28;20108;-77
2021/03/09 03:04:08;;;;;;;61.07;33.93;;;6.20;81.10;;;;;;5067495;28;20068;-74
2021/03/09 03:06:36;;;;;;;61.60;34.00;;;6.20;81.10;;;;;;5073991;28;20024;-75
2021/03/09 03:09:02;;;;;;;56.80;32.73;;;6.20;81.20;;;;;;5073338;28;20118;-75
2021/03/09 03:11:28;;;;;;;62.30;35.83;;;6.20;81.30;;;;;;5073591;28;20116;-74
2021/03/09 03:13:55;;;;;;;57.37;33.37;;;6.10;81.30;;;;;;5086703;28;20043;-75
2021/03/09 03:16:24;;;;;;;62.77;34.00;;;6.20;81.50;;;;;;5113405;28;20065;-75
2021/03/09 03:18:49;;;;;;;61.83;35.80;;;6.20;81.50;;;;;;5113239;28;20132;-75
2021/03/09 03:21:17;;;;;;;61.97;34.53;;;6.20;81.50;;;;;;5094395;28;20547;-76
2021/03/09 03:23:43;;;;;;;63.33;35.13;;;6.10;81.70;;;;;;5096232;28;20434;-75
2021/03/09 03:26:13;;;;;;;63.37;34.63;;;6.10;81.90;;;;;;5095103;28;20039;-76
2021/03/09 03:28:45;;;;;;;64.03;34.70;;;6.00;81.90;;;;;;5114420;27;20403;-76
2021/03/09 03:31:11;;;;;;;65.20;35.03;;;6.00;82.10;;;;;;5113214;28;20024;-76
2021/03/09 03:33:37;;;;;;;62.97;35.43;;;6.00;82.10;;;;;;5111772;28;20273;-76
2021/03/09 03:36:04;;;;;;;62.03;34.83;;;5.90;81.90;;;;;;5073815;28;20038;-80
2021/03/09 03:38:34;;;;;;;61.80;35.37;;;6.00;82.30;;;;;;5109660;28;20398;-77
2021/03/09 03:41:01;;;;;;;60.93;32.73;;;6.00;82.30;;;;;;5111446;28;20030;-77
2021/03/09 03:43:27;;;;;;;61.40;35.27;;;6.20;83.00;;;;;;5112540;28;20480;-76
2021/03/09 03:45:53;;;;;;;65.53;34.10;;;6.20;82.50;;;;;;5112386;28;20024;-76
2021/03/09 03:48:21;;;;;;;66.00;36.13;;;6.10;82.40;;;;;;5094746;28;20160;-75
2021/03/09 03:50:50;;;;;;;58.97;33.67;;;6.00;82.40;;;;;;5095910;28;20456;-77
2021/03/09 03:53:29;;;;;;;64.63;35.67;;;6.10;83.00;;;;;;5106983;28;20070;-77
2021/03/09 03:56:25;;;;;;;64.47;35.27;;;6.10;82.80;;;;;;5092177;28;20499;-77
2021/03/09 03:58:56;;;;;;;63.50;35.27;;;6.10;82.90;;;;;;5093400;28;20032;-76
2021/03/09 04:01:25;;;;;;;63.57;35.57;;;6.10;82.60;;;;;;5090467;28;20093;-77
2021/03/09 04:03:53;;;;;;;64.07;35.70;;;6.00;82.40;;;;;;5074165;28;20024;-77
2021/03/09 04:06:24;;;;;;;63.93;35.13;;;5.90;82.70;;;;;;5071976;28;20024;-77
2021/03/09 04:08:51;;;;;;;61.67;35.53;;;5.90;82.80;;;;;;5072890;28;20020;-77
2021/03/09 04:11:17;;;;;;;63.93;35.47;;;5.90;82.90;;;;;;5053912;28;20032;-76
2021/03/09 04:13:44;;;;;;;60.43;34.73;;;5.90;83.00;;;;;;5066833;28;20032;-77
2021/03/09 04:16:15;;;;;;;64.67;35.43;;;6.00;83.30;;;;;;5071461;28;20032;-77
2021/03/09 04:18:42;;;;;;;69.43;37.50;;;6.00;83.00;;;;;;5071213;28;20051;-77
2021/03/09 04:21:08;;;;;;;66.00;36.40;;;5.90;82.80;;;;;;5053637;28;20029;-79
2021/03/09 04:23:36;;;;;;;64.13;35.47;;;5.90;83.10;;;;;;5088303;28;20047;-76
2021/03/09 04:26:03;;;;;;;66.70;36.90;;;5.90;83.10;;;;;;5103981;28;20031;-77
2021/03/09 04:28:29;;;;;;;67.43;37.03;;;5.90;83.20;;;;;;5073528;28;20097;-77
2021/03/09 04:30:55;;;;;;;72.43;39.80;;;5.90;83.50;;;;;;5074161;28;20031;-78
2021/03/09 04:33:21;;;;;;;66.97;37.27;;;5.90;83.40;;;;;;5077260;28;20107;-77
2021/03/09 04:35:47;;;;;;;66.57;37.67;;;5.80;83.70;;;;;;5062147;28;20040;-78
2021/03/09 04:38:14;;;;;;;71.23;39.70;;;5.80;83.80;;;;;;5056841;28;20028;-78
2021/03/09 04:40:40;;;;;;;68.70;39.03;;;5.80;83.80;;;;;;5091951;28;20494;-77
2021/03/09 04:43:06;;;;;;;74.40;39.30;;;5.90;84.10;;;;;;5091052;28;20054;-78
2021/03/09 04:45:32;;;;;;;72.33;38.80;;;5.90;84.00;;;;;;5073420;28;20032;-77
2021/03/09 04:48:02;;;;;;;73.17;41.77;;;5.90;84.10;;;;;;5074025;28;20485;-77
2021/03/09 04:50:28;;;;;;;75.77;42.10;;;5.90;84.10;;;;;;5089801;28;20060;-78
2021/03/09 04:52:54;;;;;;;69.87;38.43;;;5.80;84.10;;;;;;5090544;28;20475;-77
2021/03/09 04:55:24;;;;;;;69.37;38.17;;;5.80;84.00;;;;;;5089760;28;20077;-77
2021/03/09 04:57:50;;;;;;;72.33;41.67;;;5.80;84.10;;;;;;5062543;28;20477;-77
2021/03/09 05:00:21;;;;;;;71.23;38.97;;;5.80;84.20;;;;;;5110203;28;20126;-78
2021/03/09 05:02:51;;;;;;;73.40;40.77;;;5.80;84.10;;;;;;5100709;28;20028;-77
2021/03/09 05:05:22;;;;;;;68.07;38.80;;;5.80;84.10;;;;;;5085744;28;20033;-78
2021/03/09 05:07:48;;;;;;;67.10;38.30;;;5.70;84.10;;;;;;5070594;28;20439;-77
2021/03/09 05:10:14;;;;;;;64.43;35.43;;;5.70;83.90;;;;;;5070572;28;20043;-80
2021/03/09 05:12:42;;;;;;;67.10;35.97;;;5.80;84.40;;;;;;5070123;28;20083;-78
2021/03/09 05:15:10;;;;;;;65.97;37.57;;;5.80;84.60;;;;;;5070238;28;20047;-78
2021/03/09 05:17:36;;;;;;;67.10;37.57;;;5.90;84.40;;;;;;5070617;28;20040;-77
2021/03/09 05:20:04;;;;;;;62.77;35.30;;;5.90;84.20;;;;;;5070105;28;20027;-78
2021/03/09 05:22:29;;;;;;;61.63;35.17;;;6.00;84.30;;;;;;5069364;28;20050;-78
2021/03/09 05:24:55;;;;;;;63.33;36.63;;;5.90;84.30;;;;;;5060207;28;20034;-78
2021/03/09 05:27:21;;;;;;;62.47;35.27;;;6.00;84.20;;;;;;5076463;28;20039;-78
2021/03/09 05:29:46;;;;;;;59.47;34.37;;;6.00;84.30;;;;;;5110696;28;20031;-77
2021/03/09 05:32:12;;;;;;;57.67;34.13;;;6.00;84.40;;;;;;5110498;28;20055;-81
2021/03/09 05:34:38;;;;;;;64.10;35.93;;;6.10;84.50;;;;;;5110443;28;20065;-78
2021/03/09 05:37:03;;;;;;;60.10;34.50;;;6.10;84.30;;;;;;5070132;28;20393;-79
2021/03/09 05:39:29;;;;;;;57.93;33.17;;;6.00;84.10;;;;;;5068801;28;20124;-78
2021/03/09 05:41:54;;;;;;;62.90;35.00;;;6.00;84.30;;;;;;5070031;28;20028;-78
2021/03/09 05:44:20;;;;;;;57.73;33.77;;;6.10;84.30;;;;;;5057864;28;20062;-79
2021/03/09 05:46:46;;;;;;;58.37;33.87;;;6.00;84.20;;;;;;5070170;28;20033;-79
2021/03/09 05:49:12;;;;;;;58.73;34.07;;;6.00;84.30;;;;;;5069754;28;20025;-78
2021/03/09 05:51:38;;;;;;;59.97;33.80;;;5.90;84.40;;;;;;5052026;28;20056;-78
2021/03/09 05:54:04;;;;;;;61.00;34.43;;;5.80;84.50;;;;;;5052936;28;20033;-78
2021/03/09 05:56:30;;;;;;;57.93;32.10;;;5.90;84.70;;;;;;5070383;28;20396;-79
2021/03/09 05:58:56;;;;;;;56.77;33.50;;;6.00;84.90;;;;;;5086235;28;20147;-78
2021/03/09 06:01:22;;;;;;;61.33;35.07;;;6.00;84.70;;;;;;5091579;28;20020;-80
2021/03/09 06:03:47;;;;;;;61.50;34.80;;;6.00;84.50;;;;;;5094827;28;20472;-78
2021/03/09 06:06:13;;;;;;;58.43;34.20;;;6.00;84.60;;;;;;5097091;28;20045;-78
2021/03/09 06:08:39;;;;;;;63.60;36.87;;;5.80;84.60;;;;;;5096428;28;20024;-78
2021/03/09 06:11:16;;;;;;;64.37;36.43;;;5.80;84.60;;;;;;5089800;28;20476;-79
2021/03/09 06:13:42;;;;;;;60.60;34.20;;;5.70;84.80;;;;;;5075656;28;20051;-79
2021/03/09 06:16:09;;;;;;;58.57;35.23;;;5.80;85.00;;;;;;5105970;28;20058;-79
2021/03/09 06:18:34;;;;;;;60.93;33.73;;;5.80;85.10;;;;;;5113346;28;20039;-79
2021/03/09 06:21:12;;;;;;;62.67;36.37;;;5.70;85.10;;;;;;5080095;28;20131;-79
2021/03/09 06:23:38;;;;;;;62.10;34.90;;;5.80;85.00;;;;;;5105881;28;20144;-79
2021/03/09 06:26:25;;;;;;;56.77;33.83;;;5.80;85.00;;;;;;5094518;28;20523;-79
2021/03/09 06:29:06;;;;;;;59.93;35.03;;;5.80;85.30;;;;;;5093748;28;20380;-79
2021/03/09 06:31:32;;;;;;;61.27;34.97;;;5.70;85.30;;;;;;5100921;28;20024;-80
2021/03/09 06:34:27;;;;;;;62.73;36.23;;;5.80;85.40;;;;;;5075053;28;20036;-79
2021/03/09 06:37:07;;;;;;;60.67;33.70;;;5.80;85.40;;;;;;5073230;28;20123;-79
2021/03/09 06:40:06;;;;;;;60.80;34.73;;;5.80;85.60;;;;;;5072780;28;20028;-80
2021/03/09 06:42:38;;;;;;;59.40;34.87;;;5.80;85.30;;;;;;5056553;28;20032;-80
2021/03/09 06:45:14;;;;;;;60.83;35.35;;;5.80;85.20;;;;;;5074454;28;20032;-81
2021/03/09 06:47:50;;;;;;;59.70;32.93;;;5.90;85.50;;;;;;5073925;28;20143;-80
2021/03/09 06:50:34;;;;;;;55.87;32.47;;;5.90;85.60;;;;;;5073784;28;20055;-81
2021/03/09 06:53:02;;;;;;;61.43;35.23;;;6.00;85.70;;;;;;5074400;28;20028;-80
2021/03/09 06:55:32;;;;;;;64.13;35.90;;;5.90;85.40;;;;;;5087049;28;20035;-79
2021/03/09 06:58:12;;;;;;;62.93;36.03;;;5.90;85.50;;;;;;5092712;28;20032;-79
2021/03/09 07:00:42;;;;;;;57.70;34.47;;;5.90;85.60;;;;;;5071684;28;20484;-79
2021/03/09 07:03:38;;;;;;;56.27;32.27;;;5.90;85.60;;;;;;5101714;28;20028;-78
2021/03/09 07:06:05;;;;;;;58.40;34.20;;;5.90;85.90;;;;;;5078730;28;20033;-79
2021/03/09 07:08:31;;;;;;;51.77;30.47;;;6.00;85.70;;;;;;5072085;28;20032;-79
2021/03/09 07:10:58;;;;;;;52.07;31.43;;;6.00;85.90;;;;;;5072992;28;20021;-79
2021/03/09 07:13:25;;;;;;;55.03;32.27;;;6.10;85.70;;;;;;5078342;28;20055;-84
2021/03/09 07:15:51;;;;;;;57.77;33.67;;;6.10;85.60;;;;;;5072149;28;20346;-80
2021/03/09 07:18:28;;;;;;;55.03;33.37;;;6.20;85.50;;;;;;5056160;28;20028;-79
2021/03/09 07:20:55;;;;;;;54.67;31.47;;;6.10;85.40;;;;;;5072694;28;20059;-81
2021/03/09 07:23:22;;;;;;;56.43;32.50;;;6.20;85.70;;;;;;5075717;28;20099;-81
2021/03/09 07:25:59;;;;;;;54.07;33.57;;;6.20;85.60;;;;;;5071538;28;20119;-81
2021/03/09 07:28:36;;;;;;;53.27;31.37;;;6.20;85.40;;;;;;5055771;28;20058;-82
2021/03/09 07:31:04;;;;;;;53.07;29.80;;;6.20;85.70;;;;;;5090866;28;20070;-80
2021/03/09 07:33:30;;;;;;;52.80;31.47;;;6.20;85.60;;;;;;5072111;28;20028;-80
2021/03/09 07:35:57;;;;;;;57.57;33.17;;;6.30;85.70;;;;;;5072607;28;20495;-83
2021/03/09 07:38:23;;;;;;;54.40;32.50;;;6.40;85.50;;;;;;5072297;28;20181;-83
2021/03/09 07:40:50;;;;;;;61.73;34.97;;;6.30;85.10;;;;;;5057289;28;20024;-83
2021/03/09 07:43:16;;;;;;;57.67;34.33;;;6.20;85.20;;;;;;5092404;28;20035;-82
2021/03/09 07:45:42;;;;;;;55.97;33.03;;;6.20;85.50;;;;;;5092352;28;20024;-81
2021/03/09 07:48:28;;;;;;;58.03;34.00;;;6.20;86.30;;;;;;5075150;28;20036;-82
2021/03/09 07:51:03;;;;;;;57.87;33.67;;;6.30;85.80;;;;;;5093630;28;20040;-81
2021/03/09 07:53:29;;;;;;;56.87;33.60;;;6.30;85.70;;;;;;5093081;28;20016;-84
2021/03/09 07:56:03;;;;;;;55.37;33.23;;;6.40;85.70;;;;;;5078799;28;20391;-82
2021/03/09 07:58:29;;;;;;;56.87;34.67;;;6.60;85.70;;;;;;5099437;28;20036;-83
2021/03/09 08:01:01;;;;;;;56.53;34.43;;;6.50;85.40;;;;;;5084545;28;20039;-82
2021/03/09 08:03:35;;;;;;;57.63;35.13;;;6.50;85.40;;;;;;5102748;28;20031;-82
2021/03/09 08:06:02;;;;;;;65.17;38.73;;;6.50;85.40;;;;;;5097036;28;20089;-81
2021/03/09 08:08:46;;;;;;;61.03;36.10;;;6.50;85.50;;;;;;5096609;28;20039;-84
2021/03/09 08:11:22;;;;;;;57.43;34.57;;;6.50;85.60;;;;;;5097931;28;20057;-81
2021/03/09 08:14:09;;;;;;;60.57;36.70;;;6.50;85.50;;;;;;5097268;28;20511;-82
2021/03/09 08:16:42;;;;;;;63.93;38.20;;;6.40;85.30;;;;;;5096941;28;20063;-82
2021/03/09 08:19:24;;;;;;;64.23;40.30;;;6.50;85.50;;;;;;5094500;28;20028;-82
2021/03/09 08:21:59;;;;;;;64.40;39.27;;;6.50;85.50;;;;;;5095244;28;20020;-81
2021/03/09 08:24:43;;;;;;;63.87;39.27;;;6.50;85.40;;;;;;5078848;28;20041;-81
2021/03/09 08:27:27;;;;;;;66.93;40.97;;;6.50;85.60;;;;;;5092372;28;20028;-81
2021/03/09 08:29:53;;;;;;;65.90;39.80;;;6.60;85.70;;;;;;5088087;28;20874;-81
2021/03/09 08:32:27;;;;;;;69.73;41.93;;;6.60;85.70;;;;;;5091965;28;20028;-80
2021/03/09 08:35:11;;;;;;;69.83;42.70;;;6.50;85.60;;;;;;5074411;28;20024;-81
2021/03/09 08:37:37;;;;;;;64.87;40.87;;;6.50;85.80;;;;;;5085371;28;20028;-83
2021/03/09 08:40:06;;;;;;;67.50;41.33;;;6.60;85.90;;;;;;5069266;28;20472;-81
2021/03/09 08:43:03;;;;;;;72.20;44.17;;;6.50;85.80;;;;;;5113243;28;20028;-82
2021/03/09 08:45:33;;;;;;;76.80;46.53;;;6.60;86.10;;;;;;5100519;28;20028;-80
2021/03/09 08:47:58;;;;;;;75.53;44.57;;;6.70;86.10;;;;;;5091379;28;20032;-80
2021/03/09 08:50:43;;;;;;;77.80;43.43;;;6.80;86.10;;;;;;5091573;28;20100;-81
2021/03/09 08:53:31;;;;;;;87.00;49.67;;;6.80;86.10;;;;;;5075325;28;20099;-80
2021/03/09 08:56:00;;;;;;;74.60;44.27;;;6.80;86.40;;;;;;5090064;28;20077;-80
2021/03/09 08:58:27;;;;;;;70.20;42.43;;;7.00;86.50;;;;;;5091076;28;20032;-79
2021/03/09 09:00:53;;;;;;;72.00;45.27;;;7.00;86.10;;;;;;5090250;28;20031;-79
2021/03/09 09:03:36;;;;;;;73.67;44.93;;;7.00;86.00;;;;;;5090554;28;20028;-79
2021/03/09 09:06:02;;;;;;;78.20;47.95;;;7.10;86.00;;;;;;5073519;28;20058;-79
2021/03/09 09:08:28;;;;;;;78.80;49.03;;;7.00;85.80;;;;;;5073164;28;20361;-81
2021/03/09 09:10:54;;;;;;;78.77;46.17;;;7.00;86.00;;;;;;5108828;28;20183;-80
2021/03/09 09:13:30;;;;;;;75.20;45.33;;;7.10;86.30;;;;;;5084969;28;20557;-79
2021/03/09 09:15:55;;;;;;;78.93;47.87;;;7.10;86.00;;;;;;5079666;28;20012;-79
2021/03/09 09:18:23;;;;;;;82.57;49.07;;;7.10;86.30;;;;;;5086401;28;20035;-79
2021/03/09 09:20:49;;;;;;;80.70;50.00;;;7.10;85.90;;;;;;5083411;28;20025;-80
2021/03/09 09:23:21;;;;;;;82.80;46.97;;;7.20;85.80;;;;;;5092974;28;20032;-79
2021/03/09 09:25:48;;;;;;;79.20;47.10;;;7.10;85.60;;;;;;5089112;28;20024;-79
2021/03/09 09:28:24;;;;;;;78.13;47.93;;;7.10;85.80;;;;;;5084945;28;20043;-79
2021/03/09 09:30:50;;;;;;;75.03;44.87;;;7.20;85.90;;;;;;5085105;28;20032;-80
2021/03/09 09:33:16;;;;;;;79.87;46.87;;;7.20;85.90;;;;;;5090565;28;20031;-80
2021/03/09 09:35:43;;;;;;;76.90;46.83;;;7.30;85.70;;;;;;5081551;28;20025;-80
2021/03/09 09:38:14;;;;;;;78.83;46.30;;;7.30;85.60;;;;;;5074615;28;20028;-79
2021/03/09 09:40:42;;;;;;;78.10;44.70;;;7.40;85.70;;;;;;5095755;28;20111;-84
2021/03/09 09:43:13;;;;;;;77.13;44.27;;;7.50;85.60;;;;;;5085800;28;20041;-79
2021/03/09 09:45:51;;;;;;;74.77;44.60;;;7.60;85.50;;;;;;5084929;28;20111;-83
2021/03/09 09:48:35;;;;;;;76.87;43.73;;;7.70;85.30;;;;;;5087404;28;20862;-81
2021/03/09 09:51:03;;;;;;;76.17;42.63;;;7.60;85.30;;;;;;5091968;28;20048;-80
2021/03/09 09:53:30;;;;;;;75.20;44.90;;;7.60;85.20;;;;;;5088318;28;20036;-81
2021/03/09 09:55:56;;;;;;;75.00;44.97;;;7.70;85.40;;;;;;5081064;28;20161;-79
2021/03/09 09:58:22;;;;;;;74.30;43.00;;;7.70;85.40;;;;;;5081092;28;20514;-79
2021/03/09 10:00:55;;;;;;;77.10;44.93;;;7.80;85.00;;;;;;5084893;28;20031;-79
2021/03/09 10:03:21;;;;;;;79.15;46.65;;;7.80;85.00;;;;;;5081559;28;20115;-79
2021/03/09 10:05:47;;;;;;;82.23;48.27;;;7.90;85.00;;;;;;5088034;28;20130;-80
2021/03/09 10:08:32;;;;;;;77.97;45.63;;;7.90;85.20;;;;;;5081031;28;20036;-79
2021/03/09 10:11:00;;;;;;;78.33;47.87;;;8.00;85.10;;;;;;5085078;28;20468;-78
2021/03/09 10:13:26;;;;;;;73.70;44.60;;;8.10;85.30;;;;;;5090355;28;20028;-79
2021/03/09 10:15:52;;;;;;;78.57;45.33;;;8.20;85.00;;;;;;5082556;28;20025;-78
2021/03/09 10:18:23;;;;;;;70.70;42.70;;;8.30;84.80;;;;;;5087261;28;20028;-78
2021/03/09 10:21:05;;;;;;;73.43;43.83;;;8.40;84.50;;;;;;5090995;28;20100;-79
2021/03/09 10:23:57;;;;;;;75.47;47.23;;;8.50;84.40;;;;;;5094108;28;20157;-78
2021/03/09 10:26:49;;;;;;;74.57;44.93;;;8.70;84.20;;;;;;5086394;28;20488;-79
2021/03/09 10:29:17;;;;;;;67.88;41.20;;;8.90;83.70;;;;;;5080828;28;20036;-79
2021/03/09 10:31:49;;;;;;;62.90;38.17;;;9.10;83.50;;;;;;5087869;28;20024;-81
2021/03/09 10:34:19;;;;;;;68.77;43.43;;;9.10;82.80;;;;;;5094316;28;20028;-78
2021/03/09 10:36:53;;;;;;;75.03;45.47;;;9.20;82.80;;;;;;5076121;28;20032;-81
2021/03/09 10:39:21;;;;;;;58.23;38.03;;;9.40;83.10;;;;;;5089652;28;20035;-79
2021/03/09 10:41:46;;;;;;;62.50;39.90;;;9.60;82.60;;;;;;5074189;28;20024;-79
2021/03/09 10:44:32;;;;;;;55.27;34.93;;;9.80;82.30;;;;;;5084062;28;20115;-79
2021/03/09 10:47:00;;;;;;;56.17;37.27;;;9.90;81.70;;;;;;5092487;28;20063;-79
2021/03/09 10:49:26;;;;;;;50.60;31.67;;;10.10;81.40;;;;;;5071407;28;20028;-79
2021/03/09 10:52:06;;;;;;;42.57;27.87;;;10.30;81.00;;;;;;5074177;28;20124;-80
2021/03/09 10:54:33;;;;;;;47.97;30.40;;;10.40;80.30;;;;;;5094314;28;20032;-78
2021/03/09 10:56:59;;;;;;;43.80;28.77;;;10.50;80.10;;;;;;5086046;28;20047;-79
2021/03/09 10:59:25;;;;;;;46.27;30.53;;;10.50;79.70;;;;;;5067564;28;20036;-78
2021/03/09 11:01:51;;;;;;;44.07;28.63;;;10.50;79.70;;;;;;5076139;28;20079;-79
2021/03/09 11:04:17;;;;;;;47.33;32.30;;;10.50;79.60;;;;;;5056982;28;20051;-79
2021/03/09 11:06:43;;;;;;;48.00;31.43;;;10.40;79.60;;;;;;5072014;28;20024;-79
2021/03/09 11:09:10;;;;;;;38.20;25.70;;;10.40;79.80;;;;;;5079772;28;20028;-79
2021/03/09 11:11:36;;;;;;;41.67;27.07;;;10.40;79.50;;;;;;5088631;28;20036;-78
2021/03/09 11:14:02;;;;;;;52.10;35.47;;;10.30;79.60;;;;;;5092099;28;20032;-77
2021/03/09 11:16:30;;;;;;;41.47;27.57;;;10.30;80.30;;;;;;5071550;28;20036;-78
2021/03/09 11:18:59;;;;;;;41.37;28.50;;;10.30;79.90;;;;;;5072273;28;20384;-78
2021/03/09 11:21:26;;;;;;;37.90;26.10;;;10.10;80.00;;;;;;5055225;28;20028;-78
2021/03/09 11:23:52;;;;;;;42.23;28.57;;;10.00;80.10;;;;;;5085150;28;20028;-78
2021/03/09 11:26:23;;;;;;;36.77;23.70;;;9.90;80.50;;;;;;5093405;28;20027;-82
2021/03/09 11:28:49;;;;;;;37.80;23.93;;;9.70;80.80;;;;;;5086255;28;20086;-83
2021/03/09 11:31:15;;;;;;;35.87;23.87;;;9.60;80.90;;;;;;5079480;28;20032;-78
2021/03/09 11:33:41;;;;;;;39.27;23.80;;;9.40;80.90;;;;;;5073081;28;20040;-78
2021/03/09 11:36:08;;;;;;;45.37;29.10;;;9.30;81.10;;;;;;5094821;28;20016;-78
2021/03/09 11:38:34;;;;;;;37.63;24.50;;;9.20;81.30;;;;;;5091001;28;20036;-78
2021/03/09 11:40:59;;;;;;;41.07;25.07;;;9.10;81.60;;;;;;5094828;28;20020;-78
2021/03/09 11:43:25;;;;;;;37.17;24.87;;;9.20;81.70;;;;;;5094874;28;20475;-78
2021/03/09 11:45:51;;;;;;;39.80;27.13;;;9.40;81.60;;;;;;5077703;28;20111;-79
2021/03/09 11:48:17;;;;;;;42.60;27.83;;;9.50;81.60;;;;;;5072176;28;20033;-79
2021/03/09 11:50:42;;;;;;;42.23;28.20;;;9.60;81.50;;;;;;5085445;28;20056;-77
2021/03/09 11:53:08;;;;;;;43.50;26.37;;;9.60;81.40;;;;;;5087608;28;20480;-79
2021/03/09 11:55:34;;;;;;;45.10;28.07;;;9.60;81.30;;;;;;5088023;28;20071;-78
2021/03/09 11:57:59;;;;;;;46.97;27.53;;;9.50;81.40;;;;;;5068408;28;20036;-78
2021/03/09 12:00:25;;;;;;;42.43;25.97;;;9.50;81.40;;;;;;5080605;28;20025;-77
2021/03/09 12:02:51;;;;;;;43.33;26.43;;;9.50;81.40;;;;;;5072608;28;20039;-78
2021/03/09 12:05:17;;;;;;;40.93;24.73;;;9.60;81.70;;;;;;5063939;28;20111;-77
2021/03/09 12:07:42;;;;;;;43.13;26.67;;;9.70;81.50;;;;;;5089437;28;20032;-77
2021/03/09 12:10:10;;;;;;;36.90;22.50;;;9.80;81.50;;;;;;5073053;28;20032;-78
2021/03/09 12:12:36;;;;;;;36.80;23.53;;;10.00;80.90;;;;;;5063732;28;20131;-77
2021/03/09 12:15:02;;;;;;;34.90;22.10;;;10.10;80.30;;;;;;5088140;28;20059;-77
2021/03/09 12:17:28;;;;;;;33.63;21.63;;;10.30;80.10;;;;;;5093021;28;20035;-77
2021/03/09 12:19:53;;;;;;;35.80;22.30;;;10.40;80.00;;;;;;5070166;28;20384;-83
2021/03/09 12:22:19;;;;;;;29.00;19.10;;;10.70;79.90;;;;;;5072766;28;20078;-76
2021/03/09 12:24:45;;;;;;;27.43;18.17;;;10.70;79.40;;;;;;5080572;28;20391;-77
2021/03/09 12:27:10;;;;;;;27.50;18.43;;;10.60;79.00;;;;;;5084608;28;20038;-77
2021/03/09 12:29:36;;;;;;;28.47;18.73;;;10.50;78.90;;;;;;5090969;28;20032;-76
2021/03/09 12:32:02;;;;;;;26.57;18.70;;;10.40;78.80;;;;;;5064760;28;20534;-76
2021/03/09 12:34:27;;;;;;;29.47;19.30;;;10.30;79.20;;;;;;5071808;28;20112;-76
2021/03/09 12:36:53;;;;;;;25.13;17.53;;;10.10;79.30;;;;;;5071991;28;20098;-77
2021/03/09 12:39:18;;;;;;;25.70;16.27;;;10.00;79.40;;;;;;5065744;28;20074;-76
2021/03/09 12:41:44;;;;;;;22.10;14.90;;;9.90;79.30;;;;;;5072589;28;20032;-76
2021/03/09 12:44:10;;;;;;;23.60;16.07;;;9.70;79.30;;;;;;5092532;28;20426;-77
2021/03/09 12:46:35;;;;;;;25.57;17.30;;;9.60;79.30;;;;;;5069686;28;20032;-76